Time;durP1;ratioP1;P1;durP2;ratioP2;P2;SDS_P1;SDS_P2;PMS_P1;PMS_P2;Temp;Humidity;BMP_temperature;BMP_pressure;BME280_temperature;BME280_humidity;BME280_pressure;Samples;Min_cycle;Max_cycle;Signal;HPM_P1;HPM_P2
2022/05/26 00:01:47;;;;;;;;;4.50;3.50;;;;;22.64;39.00;101732.16;4997631;28;45542;-55
2022/05/26 00:04:12;;;;;;;;;3.00;3.00;;;;;22.64;39.10;101721.59;4997949;28;45431;-55
2022/05/26 00:06:37;;;;;;;;;3.00;3.00;;;;;22.63;39.13;101735.72;4997911;28;45613;-54
2022/05/26 00:09:03;;;;;;;;;3.00;3.00;;;;;22.63;39.08;101736.56;4997891;28;45254;-55
2022/05/26 00:11:32;;;;;;;;;2.00;2.00;;;;;22.63;39.27;101735.72;4992521;28;45857;-54
2022/05/26 00:14:03;;;;;;;;;4.25;3.00;;;;;22.64;39.11;101740.09;4997797;28;45572;-52
2022/05/26 00:16:28;;;;;;;;;3.75;2.50;;;;;22.63;39.18;101731.28;4997838;28;45414;-53
2022/05/26 00:18:53;;;;;;;;;5.00;2.50;;;;;22.64;39.17;101740.09;4998308;28;45406;-54
2022/05/26 00:21:19;;;;;;;;;3.50;3.50;;;;;22.64;39.18;101738.28;4993288;28;45690;-55
2022/05/26 00:23:45;;;;;;;;;5.25;2.00;;;;;22.63;39.31;101741.00;4996417;28;45463;-55
2022/05/26 00:26:10;;;;;;;;;2.00;2.00;;;;;22.64;39.44;101740.91;4997060;28;45440;-55
2022/05/26 00:28:35;;;;;;;;;2.00;1.75;;;;;22.65;39.32;101739.16;4997030;28;45498;-55
2022/05/26 00:31:01;;;;;;;;;3.00;2.50;;;;;22.63;39.47;101739.22;4996870;28;45477;-53
2022/05/26 00:33:27;;;;;;;;;1.00;1.00;;;;;22.63;39.59;101741.00;4997379;28;46121;-55
2022/05/26 00:35:52;;;;;;;;;1.00;1.00;;;;;22.65;39.56;101741.78;4997006;28;45462;-54
2022/05/26 00:38:18;;;;;;;;;2.75;2.75;;;;;22.65;39.52;101744.44;4997187;28;45258;-55
2022/05/26 00:40:45;;;;;;;;;2.00;1.00;;;;;22.65;39.22;101744.44;4992470;28;45458;-55
2022/05/26 00:43:11;;;;;;;;;3.00;2.00;;;;;22.64;39.52;101742.72;4977801;28;46087;-54
2022/05/26 00:45:56;;;;;;;;;2.00;1.00;;;;;22.62;39.73;101745.44;4977732;28;45847;-55
2022/05/26 00:48:26;;;;;;;;;2.50;2.50;;;;;22.63;39.45;101744.50;4977603;28;45298;-55
2022/05/26 00:50:55;;;;;;;;;3.00;1.25;;;;;22.62;39.82;101740.13;4977752;28;45425;-54
2022/05/26 00:53:31;;;;;;;;;2.25;2.00;;;;;22.61;39.65;101743.72;4977649;28;45519;-55
2022/05/26 00:56:05;;;;;;;;;1.25;1.25;;;;;22.63;39.67;101746.28;4977562;28;45639;-54
2022/05/26 00:58:37;;;;;;;;;1.00;1.00;;;;;22.61;39.70;101750.78;4977833;28;45440;-55
2022/05/26 01:01:02;;;;;;;;;1.00;1.00;;;;;22.63;39.70;101748.94;4977912;28;45401;-54
2022/05/26 01:03:34;;;;;;;;;1.00;1.00;;;;;22.62;39.66;101749.88;4977694;28;46231;-55
2022/05/26 01:06:26;;;;;;;;;1.00;1.00;;;;;22.62;39.69;101752.50;4977594;28;45819;-53
2022/05/26 01:08:57;;;;;;;;;3.00;1.50;;;;;22.62;39.93;101749.88;4977790;28;45230;-54
2022/05/26 01:11:24;;;;;;;;;1.00;1.00;;;;;22.60;39.94;101752.56;4977737;28;45238;-53
2022/05/26 01:13:58;;;;;;;;;1.00;1.00;;;;;22.61;39.81;101758.72;4977271;28;46359;-55
2022/05/26 01:16:40;;;;;;;;;3.00;1.00;;;;;22.61;39.64;101758.72;4977071;28;45607;-55
2022/05/26 01:19:45;;;;;;;;;0.00;0.00;;;;;22.60;39.80;101763.13;4976188;28;45352;-55
2022/05/26 01:22:48;;;;;;;;;1.00;0.75;;;;;22.59;39.84;101755.28;4977301;28;45413;-54
2022/05/26 01:25:38;;;;;;;;;0.00;0.00;;;;;22.58;39.53;101759.75;4977044;28;46475;-55
2022/05/26 01:28:13;;;;;;;;;2.00;1.00;;;;;22.58;39.93;101765.03;4992367;28;45379;-54
2022/05/26 01:30:44;;;;;;;;;1.00;1.00;;;;;22.57;39.69;101760.66;4977307;28;45369;-55
2022/05/26 01:33:18;;;;;;;;;0.00;0.00;;;;;22.57;39.76;101762.44;4977419;28;45270;-55
2022/05/26 01:35:55;;;;;;;;;0.00;0.00;;;;;22.54;39.69;101761.66;4976761;28;46662;-54
2022/05/26 01:38:32;;;;;;;;;0.50;0.50;;;;;22.57;39.82;101765.06;4977105;28;45409;-55
2022/05/26 01:41:20;;;;;;;;;0.50;0.50;;;;;22.57;39.75;101773.00;4977380;28;45365;-54
2022/05/26 01:44:14;;;;;;;;;2.50;0.75;;;;;22.54;39.93;101763.44;4977293;28;45372;-54
2022/05/26 01:46:42;;;;;;;;;1.00;1.00;;;;;22.54;39.93;101764.28;4965710;28;46335;-55
2022/05/26 01:49:40;;;;;;;;;0.00;0.00;;;;;22.55;40.12;101771.28;4976923;28;45853;-55
2022/05/26 01:52:27;;;;;;;;;0.00;0.00;;;;;22.54;39.64;101769.56;4977057;28;45481;-55
2022/05/26 01:55:14;;;;;;;;;0.00;0.00;;;;;22.54;39.74;101774.03;4975862;28;45431;-54
2022/05/26 01:57:54;;;;;;;;;2.75;1.00;;;;;22.52;39.62;101760.91;4976580;28;46560;-54
2022/05/26 02:00:20;;;;;;;;;2.00;1.00;;;;;22.52;39.96;101754.75;4975326;28;45883;-55
2022/05/26 02:02:52;;;;;;;;;0.00;0.00;;;;;22.53;39.92;101767.03;4978768;28;45450;-55
2022/05/26 02:05:23;;;;;;;;;3.00;1.00;;;;;22.51;39.83;101769.75;4980506;28;45361;-56
2022/05/26 02:08:03;;;;;;;;;1.75;0.00;;;;;22.51;40.22;101766.22;4980238;28;45468;-55
2022/05/26 02:10:35;;;;;;;;;0.50;0.50;;;;;22.51;39.81;101759.19;4980572;28;45317;-54
2022/05/26 02:13:24;;;;;;;;;1.00;1.00;;;;;22.51;39.95;101759.19;4962997;28;45343;-55
2022/05/26 02:15:55;;;;;;;;;1.50;0.25;;;;;22.51;40.09;101767.09;4969234;28;45426;-55
2022/05/26 02:18:42;;;;;;;;;0.00;0.00;;;;;22.50;39.90;101762.75;4980231;28;46539;-55
2022/05/26 02:21:17;;;;;;;;;0.75;0.75;;;;;22.49;39.70;101763.69;4980118;28;45436;-54
2022/05/26 02:23:54;;;;;;;;;2.25;1.00;;;;;22.49;40.23;101761.03;4980156;28;45333;-56
2022/05/26 02:26:19;;;;;;;;;1.00;1.00;;;;;22.48;40.04;101761.13;4980441;28;45438;-55
2022/05/26 02:31:30;;;;;;;;;1.00;1.00;;;;;22.49;39.99;101771.59;4979873;28;45392;-56
2022/05/26 02:34:00;;;;;;;;;1.00;1.00;;;;;22.50;40.09;101770.69;4980071;28;45324;-56
2022/05/26 02:36:30;;;;;;;;;3.75;0.25;;;;;22.50;40.49;101768.03;4980163;28;45653;-55
2022/05/26 02:38:55;;;;;;;;;2.00;0.50;;;;;22.49;40.26;101771.59;4979903;28;45498;-53
2022/05/26 02:41:23;;;;;;;;;2.25;1.00;;;;;22.49;40.11;101766.31;4979575;28;45434;-56
2022/05/26 02:43:49;;;;;;;;;1.00;1.00;;;;;22.47;40.09;101768.19;4979884;28;45229;-55
2022/05/26 02:46:23;;;;;;;;;1.00;1.00;;;;;22.50;40.11;101767.16;4979898;28;45531;-55
2022/05/26 02:48:55;;;;;;;;;2.00;1.00;;;;;22.49;40.24;101771.59;4994567;28;47379;-56
2022/05/26 02:51:33;;;;;;;;;1.00;0.00;;;;;22.49;40.44;101773.41;4979647;28;45493;-56
2022/05/26 02:54:22;;;;;;;;;1.00;1.00;;;;;22.48;40.24;101769.88;4979828;28;45296;-56
2022/05/26 02:57:16;;;;;;;;;2.00;0.25;;;;;22.48;40.48;101780.47;4978114;28;45259;-56
2022/05/26 02:59:41;;;;;;;;;2.00;2.00;;;;;22.48;40.23;101775.16;4979505;28;46424;-58
2022/05/26 03:02:27;;;;;;;;;1.67;0.67;;;;;22.47;40.22;101778.75;4979461;28;45333;-54
2022/05/26 03:05:05;;;;;;;;;1.00;1.00;;;;;22.47;40.36;101772.63;4965499;28;45684;-56
2022/05/26 03:07:34;;;;;;;;;0.00;0.00;;;;;22.46;40.31;101771.75;4979685;28;45326;-54
2022/05/26 03:10:05;;;;;;;;;0.75;0.75;;;;;22.47;40.51;101778.75;4979190;28;45447;-54
2022/05/26 03:12:33;;;;;;;;;1.00;1.00;;;;;22.46;40.38;101766.47;4979219;28;45428;-55
2022/05/26 03:14:59;;;;;;;;;1.00;1.00;;;;;22.46;40.84;101766.47;4978038;28;45361;-54
2022/05/26 03:17:24;;;;;;;;;1.00;1.00;;;;;22.45;40.38;101764.75;4979466;28;45478;-54
2022/05/26 03:19:49;;;;;;;;;2.00;0.50;;;;;22.45;40.53;101777.97;4979056;28;45416;-55
2022/05/26 03:22:15;;;;;;;;;2.00;1.00;;;;;22.45;40.59;101764.75;4979016;28;45176;-53
2022/05/26 03:24:41;;;;;;;;;2.00;0.50;;;;;22.45;40.46;101769.19;4979330;28;45171;-53
2022/05/26 03:27:06;;;;;;;;;0.50;0.50;;;;;22.43;40.64;101779.84;4979551;28;45210;-54
2022/05/26 03:29:32;;;;;;;;;0.00;0.00;;;;;22.43;40.59;101773.69;4977658;28;47399;-55
2022/05/26 03:31:57;;;;;;;;;1.00;0.00;;;;;22.45;40.50;101785.03;4979102;28;45788;-53
2022/05/26 03:42:39;;;;;;;;;0.00;0.00;;;;;22.43;40.46;101790.41;4978664;28;45732;-55
2022/05/26 03:45:06;;;;;;;;;1.75;0.00;;;;;22.43;40.53;101798.34;4979188;28;45334;-55
2022/05/26 03:47:32;;;;;;;;;1.00;1.00;;;;;22.42;40.34;101801.91;4979031;28;45298;-55
2022/05/26 03:49:57;;;;;;;;;1.00;0.25;;;;;22.43;40.63;101815.94;4978572;28;46526;-55
2022/05/26 03:52:23;;;;;;;;;0.00;0.00;;;;;22.43;40.86;101813.31;4978598;28;45262;-53
2022/05/26 03:54:49;;;;;;;;;1.00;1.00;;;;;22.42;40.76;101809.81;4977527;28;45341;-54
2022/05/26 03:57:21;;;;;;;;;0.50;0.50;;;;;22.43;40.87;101808.03;4978687;28;45608;-55
2022/05/26 03:59:46;;;;;;;;;1.00;1.00;;;;;22.42;41.11;101803.66;4978414;28;46267;-53
2022/05/26 04:02:12;;;;;;;;;1.00;0.00;;;;;22.41;40.93;101805.47;4977424;28;45437;-55
2022/05/26 04:04:37;;;;;;;;;1.00;1.00;;;;;22.42;41.15;101801.91;4978835;28;45548;-54
2022/05/26 04:07:03;;;;;;;;;2.00;0.00;;;;;22.40;41.11;101809.00;4978414;28;45579;-54
2022/05/26 04:09:28;;;;;;;;;0.25;0.25;;;;;22.41;41.08;101810.75;4978150;28;46757;-54
2022/05/26 04:11:53;;;;;;;;;1.00;1.00;;;;;22.41;41.29;101825.72;4977992;28;51677;-53
2022/05/26 04:14:19;;;;;;;;;1.00;1.00;;;;;22.41;41.32;101826.59;4978579;28;45253;-54
2022/05/26 04:16:45;;;;;;;;;0.00;0.00;;;;;22.40;41.31;101816.94;4978539;28;45326;-54
2022/05/26 04:19:10;;;;;;;;;0.00;0.00;;;;;22.41;41.54;101823.09;4978465;28;46567;-53
2022/05/26 04:21:35;;;;;;;;;0.50;0.50;;;;;22.40;41.43;101819.56;4978712;28;45302;-56
2022/05/26 04:24:01;;;;;;;;;3.75;0.50;;;;;22.41;41.82;101828.38;4978225;28;45232;-55
2022/05/26 04:26:26;;;;;;;;;0.00;0.00;;;;;22.40;41.40;101827.50;4977981;28;45258;-55
2022/05/26 04:28:52;;;;;;;;;0.00;0.00;;;;;22.39;41.26;101823.13;4978020;28;46393;-55
2022/05/26 04:31:17;;;;;;;;;2.00;0.75;;;;;22.39;41.52;101828.41;4976836;28;45343;-55
2022/05/26 04:33:44;;;;;;;;;2.00;0.00;;;;;22.39;41.57;101834.53;4978081;28;45296;-55
2022/05/26 04:36:09;;;;;;;;;0.00;0.00;;;;;22.38;41.48;101832.00;4978487;28;45511;-55
2022/05/26 04:38:35;;;;;;;;;0.00;0.00;;;;;22.38;41.41;101837.28;4977822;28;45386;-55
2022/05/26 04:41:04;;;;;;;;;1.50;0.50;;;;;22.39;41.42;101836.34;4977881;28;45317;-54
2022/05/26 04:43:31;;;;;;;;;0.75;0.75;;;;;22.38;41.61;101843.41;4978122;28;45379;-55
2022/05/26 04:45:57;;;;;;;;;1.00;1.00;;;;;22.38;41.34;101843.41;4978142;28;45530;-54
2022/05/26 04:48:23;;;;;;;;;1.00;0.25;;;;;22.38;41.77;101847.84;4977743;28;46344;-53
2022/05/26 04:50:52;;;;;;;;;1.00;1.00;;;;;22.38;41.50;101842.56;4977786;28;45460;-54
2022/05/26 04:53:18;;;;;;;;;0.00;0.00;;;;;22.38;41.54;101845.19;4977849;28;45440;-54
2022/05/26 04:55:44;;;;;;;;;1.00;1.00;;;;;22.37;41.80;101848.75;4977990;28;45718;-54
2022/05/26 04:58:10;;;;;;;;;0.50;0.00;;;;;22.37;41.55;101851.41;4977774;28;45284;-55
2022/05/26 05:00:36;;;;;;;;;2.00;0.00;;;;;22.37;41.55;101854.91;4977560;28;45695;-53
2022/05/26 05:03:01;;;;;;;;;3.00;1.00;;;;;22.37;41.59;101856.69;4977644;28;45238;-54
2022/05/26 05:05:27;;;;;;;;;1.25;0.75;;;;;22.37;41.64;101864.59;4977926;28;45646;-53
2022/05/26 05:07:52;;;;;;;;;2.00;0.00;;;;;22.37;41.61;101852.28;4977447;28;46568;-54
2022/05/26 05:10:18;;;;;;;;;0.25;0.25;;;;;22.36;41.54;101858.47;4977556;28;45305;-55
2022/05/26 05:12:44;;;;;;;;;0.25;0.25;;;;;22.36;41.53;101860.25;4977575;28;45429;-55
2022/05/26 05:15:18;;;;;;;;;1.00;1.00;;;;;22.35;41.59;101854.13;4978077;28;45438;-55
2022/05/26 05:17:44;;;;;;;;;0.00;0.00;;;;;22.36;41.43;101866.41;4977225;28;45496;-54
2022/05/26 05:20:10;;;;;;;;;0.00;0.00;;;;;22.35;41.34;101866.47;4977509;28;45361;-55
2022/05/26 05:22:43;;;;;;;;;0.50;0.50;;;;;22.36;41.55;101871.69;4977500;28;45349;-55
2022/05/26 05:25:16;;;;;;;;;0.00;0.00;;;;;22.37;41.47;101869.88;4977727;28;45274;-54
2022/05/26 05:27:49;;;;;;;;;0.25;0.25;;;;;22.35;41.38;101864.69;4977390;28;45392;-55
2022/05/26 05:30:26;;;;;;;;;1.00;1.00;;;;;22.35;41.66;101869.97;4977262;28;45692;-53
2022/05/26 05:32:54;;;;;;;;;2.00;0.00;;;;;22.36;41.68;101870.81;4977447;28;45434;-55
2022/05/26 05:35:27;;;;;;;;;1.00;1.00;;;;;22.35;41.72;101869.09;4977462;28;45301;-55
2022/05/26 05:37:53;;;;;;;;;1.00;1.00;;;;;22.35;41.47;101874.38;4976012;28;45667;-55
2022/05/26 05:40:19;;;;;;;;;0.50;0.00;;;;;22.33;41.55;101877.09;4992153;28;45421;-55
2022/05/26 05:42:44;;;;;;;;;1.00;1.00;;;;;22.31;41.56;101880.75;4992248;28;45455;-54
2022/05/26 05:45:10;;;;;;;;;2.00;1.00;;;;;22.30;41.45;101884.31;4977685;28;45464;-56
2022/05/26 05:47:35;;;;;;;;;0.25;0.25;;;;;22.28;41.85;101886.16;4975593;28;47832;-54
2022/05/26 05:50:01;;;;;;;;;3.00;1.00;;;;;22.28;41.69;101892.28;4976896;28;45341;-54
2022/05/26 05:52:27;;;;;;;;;3.00;3.00;;;;;22.27;41.84;101887.09;4977077;28;45437;-54
2022/05/26 05:54:55;;;;;;;;;71.25;58.25;;;;;22.26;41.86;101890.66;4976925;28;45515;-54
2022/05/26 05:57:21;;;;;;;;;108.00;99.75;;;;;22.26;41.99;101885.38;4976561;28;46606;-54
2022/05/26 05:59:46;;;;;;;;;80.00;72.00;;;;;22.24;41.92;101894.22;4976749;28;45352;-54
2022/05/26 06:02:12;;;;;;;;;67.50;54.75;;;;;22.23;42.30;101889.03;4976975;28;45282;-55
2022/05/26 06:04:42;;;;;;;;;61.50;49.25;;;;;22.23;42.32;101889.88;4992064;28;45315;-55
2022/05/26 06:07:12;;;;;;;;;58.00;46.00;;;;;22.22;42.01;101898.72;4976622;28;46084;-54
2022/05/26 06:09:37;;;;;;;;;46.75;39.75;;;;;22.21;42.06;101899.63;4976633;28;45294;-54
2022/05/26 06:12:03;;;;;;;;;21.00;20.00;;;;;22.20;41.83;101908.53;4976772;28;45412;-54
2022/05/26 06:14:28;;;;;;;;;15.75;14.00;;;;;22.17;41.82;101911.28;4976743;28;45619;-53
2022/05/26 06:16:53;;;;;;;;;8.50;7.00;;;;;22.15;41.91;101905.22;4976333;28;46610;-54
2022/05/26 06:19:19;;;;;;;;;5.00;5.00;;;;;22.11;41.73;101916.81;4976526;28;45869;-55
2022/05/26 06:21:44;;;;;;;;;3.25;3.25;;;;;22.04;41.76;101911.00;4977078;28;45380;-54
2022/05/26 06:24:10;;;;;;;;;3.00;3.00;;;;;22.02;41.98;101914.59;4991791;28;45558;-54
2022/05/26 06:26:36;;;;;;;;;5.25;3.00;;;;;21.99;42.08;101920.03;4976204;28;46300;-54
2022/05/26 06:37:35;;;;;;;;;2.00;2.00;;;;;21.89;41.98;101930.97;4954576;28;45420;-54
2022/05/26 06:40:00;;;;;;;;;1.00;1.00;;;;;21.90;42.21;101939.78;4967381;28;45310;-54
2022/05/26 06:42:26;;;;;;;;;0.50;0.50;;;;;21.88;41.87;101946.91;4976428;28;45458;-54
2022/05/26 06:44:52;;;;;;;;;1.75;0.00;;;;;21.83;41.92;101949.72;4976484;28;45524;-53
2022/05/26 06:47:21;;;;;;;;;0.25;0.25;;;;;21.82;42.30;101952.44;4976302;28;45720;-53
2022/05/26 06:49:47;;;;;;;;;1.00;0.00;;;;;21.81;42.36;101956.00;4979822;28;45230;-55
2022/05/26 06:52:13;;;;;;;;;2.00;1.00;;;;;21.77;42.41;101944.75;4979679;28;45167;-54
2022/05/26 06:54:44;;;;;;;;;0.00;0.00;;;;;21.77;42.64;101950.03;4979960;28;45305;-54
2022/05/26 06:57:11;;;;;;;;;0.00;0.00;;;;;21.73;42.47;101951.06;4979499;28;46578;-54
2022/05/26 06:59:37;;;;;;;;;0.00;0.00;;;;;21.68;42.83;101950.38;4979508;28;45349;-55
2022/05/26 07:02:09;;;;;;;;;0.00;0.00;;;;;21.66;42.82;101949.63;4979577;28;45191;-56
2022/05/26 07:04:36;;;;;;;;;0.00;0.00;;;;;21.64;42.60;101962.00;4979818;28;45428;-55
2022/05/26 07:07:02;;;;;;;;;0.00;0.00;;;;;21.64;42.96;101962.00;4979299;28;46645;-54
2022/05/26 07:09:28;;;;;;;;;0.00;0.00;;;;;21.64;43.01;101957.56;4979249;28;45570;-53
2022/05/26 07:11:53;;;;;;;;;0.25;0.25;;;;;21.66;42.63;101960.16;4979415;28;45361;-54
2022/05/26 07:14:19;;;;;;;;;1.00;1.00;;;;;21.67;42.62;101967.13;4979608;28;45324;-54
2022/05/26 07:16:45;;;;;;;;;3.00;1.00;;;;;21.66;42.81;101963.66;4979430;28;46239;-54
2022/05/26 07:19:15;;;;;;;;;0.00;0.00;;;;;21.65;42.55;101975.13;4979177;28;45399;-54
2022/05/26 07:21:43;;;;;;;;;0.00;0.00;;;;;21.62;42.59;101970.84;4979388;28;45234;-55
2022/05/26 07:24:10;;;;;;;;;1.75;0.25;;;;;21.62;42.92;101976.13;4979335;28;45452;-54
2022/05/26 07:26:36;;;;;;;;;0.00;0.00;;;;;21.62;42.78;101980.53;4978998;28;45424;-53
2022/05/26 07:29:03;;;;;;;;;0.00;0.00;;;;;21.61;42.65;101982.31;4978948;28;45787;-55
2022/05/26 07:31:28;;;;;;;;;0.00;0.00;;;;;21.60;42.63;101985.88;4979247;28;45404;-54
2022/05/26 07:33:54;;;;;;;;;0.00;0.00;;;;;21.61;42.66;101990.22;4977883;28;45475;-55
2022/05/26 07:41:55;;;;;;;;;1.00;0.00;;;;;21.61;42.72;101984.97;4979257;28;45470;-56
2022/05/26 07:44:20;;;;;;;;;1.00;0.00;;;;;21.64;42.67;101988.41;4978819;28;45325;-56
2022/05/26 07:46:46;;;;;;;;;0.75;0.75;;;;;21.67;42.36;101993.53;4978987;28;46145;-53
2022/05/26 07:49:12;;;;;;;;;0.00;0.00;;;;;21.68;42.46;102001.38;4993811;28;45333;-54
2022/05/26 07:51:38;;;;;;;;;0.00;0.00;;;;;21.68;42.76;102005.78;4978768;28;45402;-55
2022/05/26 07:54:03;;;;;;;;;0.00;0.00;;;;;21.71;42.49;102013.59;4979000;28;45440;-52
2022/05/26 07:56:33;;;;;;;;;0.00;0.00;;;;;21.70;42.78;102014.50;4976617;28;46881;-54
2022/05/26 07:58:58;;;;;;;;;0.00;0.00;;;;;21.70;43.65;102019.78;4978519;28;45858;-54
2022/05/26 08:01:24;;;;;;;;;0.00;0.00;;;;;21.67;43.99;102019.91;4978083;28;45419;-53
2022/05/26 08:03:53;;;;;;;;;0.00;0.00;;;;;21.66;43.89;102019.06;4979203;28;45338;-55
2022/05/26 08:06:19;;;;;;;;;0.00;0.00;;;;;21.66;44.17;102018.22;4978725;28;46690;-54
2022/05/26 08:08:45;;;;;;;;;0.00;0.00;;;;;21.64;43.90;102020.91;4978435;28;45313;-55
2022/05/26 08:11:10;;;;;;;;;0.00;0.00;;;;;21.65;43.98;102027.03;4993706;28;45238;-54
2022/05/26 08:13:36;;;;;;;;;0.00;0.00;;;;;21.66;44.03;102023.50;4977395;28;45299;-54
2022/05/26 08:16:03;;;;;;;;;0.50;0.00;;;;;21.68;44.08;102034.81;4978319;28;46429;-55
2022/05/26 08:18:29;;;;;;;;;0.00;0.00;;;;;21.67;44.19;102035.72;4978382;28;45730;-54
2022/05/26 08:20:54;;;;;;;;;0.00;0.00;;;;;21.68;44.41;102042.72;4978364;28;45406;-55
2022/05/26 08:23:23;;;;;;;;;2.00;0.50;;;;;21.69;44.44;102047.97;4978854;28;45548;-55
2022/05/26 08:25:48;;;;;;;;;1.00;1.00;;;;;21.66;44.33;102050.72;4978511;28;47358;-56
2022/05/26 08:28:14;;;;;;;;;1.25;1.00;;;;;21.67;44.66;102056.84;4978031;28;45413;-54
2022/05/26 08:30:39;;;;;;;;;1.00;1.00;;;;;21.64;44.81;102051.72;4978273;28;45570;-54
2022/05/26 08:33:05;;;;;;;;;2.75;2.00;;;;;21.59;45.12;102049.25;4978399;28;45359;-54
2022/05/26 08:35:30;;;;;;;;;2.50;2.00;;;;;21.55;45.02;102048.47;4977753;28;45555;-54
2022/05/26 08:37:56;;;;;;;;;2.50;2.50;;;;;21.52;45.24;102047.75;4977768;28;45388;-54
2022/05/26 08:40:38;;;;;;;;;2.75;1.75;;;;;21.50;45.72;102054.88;4978398;28;45290;-54
2022/05/26 08:43:05;;;;;;;;;3.25;2.25;;;;;21.45;45.48;102052.41;4977247;28;45405;-54
2022/05/26 08:45:33;;;;;;;;;3.00;3.00;;;;;21.42;45.44;102052.53;4976478;28;47239;-55
2022/05/26 08:47:59;;;;;;;;;2.00;2.00;;;;;21.41;45.77;102064.00;4977849;28;45401;-55
2022/05/26 08:50:34;;;;;;;;;2.00;1.00;;;;;21.39;45.52;102052.66;4977979;28;45373;-54
2022/05/26 08:53:23;;;;;;;;;2.25;2.25;;;;;21.38;46.13;102057.09;4978141;28;45354;-53
2022/05/26 08:55:50;;;;;;;;;2.25;1.00;;;;;21.37;45.96;102057.13;4977524;28;46824;-55
2022/05/26 08:58:22;;;;;;;;;2.00;1.50;;;;;21.35;45.53;102059.84;4977732;28;45334;-54
2022/05/26 09:00:51;;;;;;;;;2.00;2.00;;;;;21.33;45.34;102064.31;4977728;28;45333;-53
2022/05/26 09:03:17;;;;;;;;;2.00;1.00;;;;;21.33;46.05;102058.19;4977964;28;45527;-56
2022/05/26 09:05:45;;;;;;;;;1.33;1.33;;;;;21.33;45.80;102068.75;4977541;28;45504;-55
2022/05/26 09:14:04;;;;;;;;;1.50;1.50;;;;;21.37;46.04;102060.66;4990860;28;45266;-55
2022/05/26 09:16:33;;;;;;;;;1.25;1.00;;;;;21.41;45.75;102069.28;4995557;28;46424;-57
2022/05/26 09:19:18;;;;;;;;;2.75;1.25;;;;;21.44;45.35;102066.53;4995795;28;45816;-55
2022/05/26 09:21:45;;;;;;;;;1.75;1.00;;;;;21.47;45.61;102067.28;4993619;28;45639;-56
2022/05/26 09:24:17;;;;;;;;;1.00;1.00;;;;;21.51;45.26;102072.41;4995824;28;45445;-56
2022/05/26 09:26:54;;;;;;;;;4.50;1.00;;;;;21.52;44.81;102074.13;4995985;28;45280;-56
2022/05/26 09:29:28;;;;;;;;;3.00;1.25;;;;;21.52;44.71;102080.28;4996881;28;45782;-55
2022/05/26 09:31:55;;;;;;;;;2.00;1.00;;;;;21.51;44.54;102068.00;4997245;28;45624;-56
2022/05/26 09:34:26;;;;;;;;;2.00;0.00;;;;;21.50;44.13;102074.19;4996405;28;45391;-56
2022/05/26 09:36:52;;;;;;;;;1.00;1.00;;;;;21.52;44.65;102085.56;4996228;28;46573;-55
2022/05/26 09:39:34;;;;;;;;;1.00;1.00;;;;;21.53;44.22;102092.53;4994965;28;45802;-55
2022/05/26 09:42:01;;;;;;;;;2.00;2.00;;;;;21.56;44.41;102089.75;4996343;28;45329;-56
2022/05/26 09:44:46;;;;;;;;;1.75;1.75;;;;;21.57;43.89;102094.13;4996386;28;45262;-56
2022/05/26 09:47:53;;;;;;;;;2.00;1.00;;;;;21.59;44.05;102092.31;4996022;28;45702;-56
2022/05/26 09:50:30;;;;;;;;;1.00;1.00;;;;;21.61;44.08;102101.03;4935531;28;45501;-57
2022/05/26 09:52:56;;;;;;;;;2.00;1.00;;;;;21.63;43.75;102098.31;4988155;28;45379;-57
2022/05/26 09:55:32;;;;;;;;;0.25;0.25;;;;;21.65;43.64;102099.13;4997191;28;45586;-56
2022/05/26 09:58:15;;;;;;;;;2.00;1.00;;;;;21.68;43.87;102095.50;4996245;28;46433;-56
2022/05/26 10:00:43;;;;;;;;;3.00;2.00;;;;;21.72;43.75;102094.47;4996460;28;45300;-56
2022/05/26 10:03:23;;;;;;;;;1.00;1.00;;;;;21.74;43.42;102096.13;4995370;28;45292;-55
2022/05/26 10:06:20;;;;;;;;;0.75;0.50;;;;;21.76;43.32;102091.63;4995397;28;45540;-56
2022/05/26 10:08:58;;;;;;;;;2.00;1.00;;;;;21.79;43.51;102098.56;4996448;28;46317;-56
2022/05/26 10:11:47;;;;;;;;;4.00;1.00;;;;;21.81;43.25;102107.28;4996643;28;45845;-56
2022/05/26 10:14:31;;;;;;;;;2.25;1.00;;;;;21.81;43.12;102106.44;4996532;28;45339;-56
2022/05/26 10:17:19;;;;;;;;;3.50;2.50;;;;;21.80;43.01;102105.56;4997082;28;45512;-56
2022/05/26 10:19:50;;;;;;;;;5.50;2.00;;;;;21.84;43.08;102109.81;4982597;28;46247;-56
2022/05/26 10:22:36;;;;;;;;;2.00;2.00;;;;;21.84;42.74;102107.16;4996435;28;45190;-57
2022/05/26 10:25:16;;;;;;;;;2.00;2.00;;;;;21.84;42.65;102108.94;4999778;28;45372;-56
2022/05/26 10:27:49;;;;;;;;;3.50;2.00;;;;;21.83;42.79;102105.44;4999124;28;45366;-54
2022/05/26 10:30:49;;;;;;;;;3.00;1.00;;;;;21.86;42.77;102100.06;4999198;28;45357;-56
2022/05/26 10:33:29;;;;;;;;;2.75;2.00;;;;;21.89;42.87;102102.53;4999640;28;45328;-56
2022/05/26 10:36:19;;;;;;;;;1.25;1.00;;;;;21.92;42.68;102091.03;4999881;28;45364;-56
2022/05/26 10:38:51;;;;;;;;;1.00;1.00;;;;;21.94;42.68;102097.06;4999929;28;45445;-57
2022/05/26 10:41:34;;;;;;;;;1.00;1.00;;;;;21.96;42.62;102103.16;4999386;28;45479;-56
2022/05/26 10:44:02;;;;;;;;;1.75;1.75;;;;;21.97;42.29;102104.03;4999664;28;45332;-55
2022/05/26 10:46:33;;;;;;;;;1.75;1.75;;;;;21.98;42.30;102105.75;4999938;28;45420;-56
2022/05/26 10:49:15;;;;;;;;;4.00;2.00;;;;;21.97;42.13;102106.66;4999951;28;45832;-55
2022/05/26 10:51:54;;;;;;;;;1.00;1.00;;;;;21.99;42.31;102110.09;4999535;28;46542;-56
2022/05/26 10:54:37;;;;;;;;;2.25;2.00;;;;;22.00;42.50;102102.13;4999551;28;45408;-56
2022/05/26 10:57:32;;;;;;;;;2.75;1.75;;;;;22.03;42.24;102109.03;4999381;28;45285;-57
2022/05/26 11:00:00;;;;;;;;;1.00;1.00;;;;;22.06;42.20;102111.56;4994596;28;45218;-55
2022/05/26 11:02:56;;;;;;;;;1.00;1.00;;;;;22.08;42.09;102107.91;4999448;28;46513;-56
2022/05/26 11:05:27;;;;;;;;;1.00;1.00;;;;;22.10;42.09;102113.16;4969045;28;45341;-56
2022/05/26 11:07:55;;;;;;;;;1.00;1.00;;;;;22.13;42.32;102107.72;4999523;28;45299;-57
2022/05/26 11:10:24;;;;;;;;;2.00;2.00;;;;;22.14;42.04;102106.81;4999273;28;45281;-57
2022/05/26 11:13:20;;;;;;;;;1.00;1.00;;;;;22.16;41.94;102097.03;4999115;28;45291;-56
2022/05/26 11:19:03;;;;;;;;;0.00;0.00;;;;;22.17;42.05;102088.19;4999028;28;45385;-56
2022/05/26 11:21:31;;;;;;;;;2.00;1.00;;;;;22.20;41.77;102088.09;4999601;28;45348;-56
2022/05/26 11:23:56;;;;;;;;;2.00;1.00;;;;;22.21;41.86;102086.28;4999102;28;45412;-56
2022/05/26 11:26:25;;;;;;;;;1.50;0.00;;;;;22.21;41.63;102083.66;4998730;28;45547;-56
2022/05/26 11:28:59;;;;;;;;;1.00;1.00;;;;;22.20;41.41;102084.56;4999050;28;45194;-55
2022/05/26 11:37:28;;;;;;;;;1.00;1.00;;;;;22.20;41.57;102088.09;4998646;28;45782;-55
2022/05/26 11:39:58;;;;;;;;;2.25;1.00;;;;;22.23;41.59;102080.00;4998788;28;45403;-55
2022/05/26 11:42:33;;;;;;;;;1.25;1.00;;;;;22.24;41.54;102080.88;4998737;28;45399;-56
2022/05/26 11:45:13;;;;;;;;;2.00;1.00;;;;;22.24;41.16;102079.09;4998739;28;45473;-56
2022/05/26 11:48:00;;;;;;;;;1.00;1.00;;;;;22.24;41.48;102071.16;4998483;28;45614;-54
2022/05/26 11:50:50;;;;;;;;;1.00;1.00;;;;;22.26;41.46;102080.81;4998488;28;45332;-56
2022/05/26 11:53:28;;;;;;;;;0.00;0.00;;;;;22.27;41.54;102087.81;4998552;28;45540;-57
2022/05/26 11:55:58;;;;;;;;;1.00;1.00;;;;;22.26;41.22;102086.97;4997025;28;47369;-55
2022/05/26 11:58:36;;;;;;;;;0.50;0.50;;;;;22.28;41.32;102089.53;4998295;28;45446;-57
2022/05/26 12:01:35;;;;;;;;;0.75;0.75;;;;;22.30;41.46;102087.69;4998873;28;45279;-56
2022/05/26 12:04:14;;;;;;;;;0.75;0.75;;;;;22.32;41.32;102083.19;4998930;28;45369;-55
2022/05/26 12:06:42;;;;;;;;;1.00;1.00;;;;;22.30;41.41;102071.84;4997872;28;46389;-55
2022/05/26 12:09:29;;;;;;;;;1.25;1.25;;;;;22.33;41.46;102083.13;4996955;28;45808;-55
2022/05/26 12:12:09;;;;;;;;;1.25;1.25;;;;;22.34;41.59;102079.56;4998296;28;45344;-54
2022/05/26 12:14:58;;;;;;;;;1.00;1.00;;;;;22.35;41.45;102078.63;4998427;28;45243;-55
2022/05/26 12:17:30;;;;;;;;;1.00;1.00;;;;;22.36;41.30;102068.91;4997915;28;46578;-56
2022/05/26 12:20:10;;;;;;;;;1.00;1.00;;;;;22.35;41.23;102067.19;4997865;28;45337;-56
2022/05/26 12:22:40;;;;;;;;;3.00;1.00;;;;;22.36;41.52;102077.72;4996859;28;45369;-54
2022/05/26 12:25:21;;;;;;;;;1.00;1.00;;;;;22.37;41.33;102079.44;4998160;28;45382;-55